KATP

Atlantis

Atlantis, Louisiana, USA
METAR KATP 230535Z AUTO 12010KT 10SM SCT026 BKN030 OVC048 28/22 A3005 RMK A01
Observed Flight Rules
Oct-23 @ 05:35 UTC (17 minutes ago) Marginal Visual Flight Rules
Wind Visibility Clouds
120° at 10 knots 10 miles
  • Scattered at 2,600' AGL
  • Broken at 3,000' AGL
  • Overcast at 4,800' AGL
Temperatures Readings
Current 28°C / 82°F
Dewpoint 22°C / 72°F
Humidity 70%
Altimeter 30.05" Hg
Pressure 1018 hPa
Elevation 62
METAR KATP 230535Z AUTO 12010KT 10SM SCT026 BKN030 OVC048 28/22 A3005 RMK A01
Observed Flight Rules
Oct-23 @ 05:35 UTC
(17 minutes ago)
MVFR
Wind Visibility
120° at 10 knots 10 miles
Clouds
  • Scattered at 2,600' AGL
  • Broken at 3,000' AGL
  • Overcast at 4,800' AGL
Temperature Dewpoint
28°C / 82°F 22°C / 72°F
Humidity Altimeter Pressure
70% 30.05" Hg 1018 hPa